Weather observations for the past three days for
Chillicothe, Chillicothe Agri-Science Center
Imperial (Metric)
Date Time (cdt) Wind (mph) Vis. (mi.) Weather Sky Cond. Temperature (ºF) Relative Humidity Wind Chill (°F) Heat Index (°F) Pressure Precipitation (in)
Air Dwpt 6 hour altimeter (in) sea level (mb) 1 hr 3 hr 6 hr
Max. Min.
03 01:51 S 5 0.00 NULL NULL 80.1 70 71% 83 29.92 1011.4
03 00:51 S 3 0.00 NULL NULL 82 70 93 81 67% 86 29.92 1011.5
02 23:51 S 3 0.00 NULL NULL 82 69.1 65% 85 29.92 1011.4
02 22:51 Calm 0.00 NULL NULL 82.9 70 65% 87 29.92 1011.5
02 21:51 Calm 0.00 NULL NULL 82.9 70 65% 87 29.92 1011.7
02 20:51 Calm 0.00 NULL NULL 82 71.1 69% 86 29.91 1011.3
02 19:51 Calm 0.00 NULL NULL 88 70 55% 93 29.9 1010.9
02 18:51 S 6 0.00 NULL NULL 93 69.1 99 93 46% 98 29.9 1010.9
02 17:51 S 9 0.00 NULL NULL 97 66.9 37% 101 29.9 1010.8
02 16:51 Vrbl 6 G 16 0.00 NULL NULL 98.1 68 38% 103 29.9 1010.8
02 15:51 S 13 G 22 0.00 NULL NULL 99 66 34% 103 29.92 1011.3
02 14:51 S 9 0.00 NULL NULL 98.1 69.1 39% 104 29.93 1011.8
02 13:51 SW 12 0.00 NULL NULL 98.1 68 38% 103 29.95 1012.5
02 12:51 SW 8 0.00 NULL NULL 96.1 68 96.1 71.1 40% 101 29.97 1013.2
02 11:51 SW 10 G 16 0.00 NULL NULL 93 69.1 46% 98 29.99 1013.7
02 10:51 S 10 0.00 NULL NULL 90 69.1 50% 95 29.99 1013.9
02 09:51 S 6 0.00 NULL NULL 84 69.1 61% 88 29.99 1013.9
02 08:51 S 8 0.00 NULL NULL 81 68 65% 84 29.99 1014.1
02 07:51 S 6 0.00 NULL NULL 75.9 66.9 74% 77 29.99 1014.0
02 06:51 S 3 0.00 NULL NULL 71.1 66.9 75 71.1 87% 29.98 1013.7
02 05:51 Calm 0.00 NULL NULL 72 66.9 84% 29.98 1013.6
02 04:51 Calm 0.00 NULL NULL 72 69.1 91% 29.97 1013.2
02 03:51 Calm 0.00 NULL NULL 71.1 68 90% 29.96 1012.8
02 02:51 Calm 0.00 NULL NULL 73 70 90% 29.95 1012.3
02 01:51 Calm 0.00 NULL NULL 73.9 70 88% 29.96 1012.6
02 00:51 Calm 0.00 NULL NULL 73.9 69.1 91.9 73.9 85% 29.97 1013.1
01 23:51 Calm 0.00 NULL NULL 77 68 74% 79 29.96 1012.9
01 22:51 S 3 0.00 NULL NULL 79 68 69% 81 29.96 1012.7
01 21:51 Calm 0.00 NULL NULL 81 66.9 62% 83 29.95 1012.5
01 20:51 S 3 0.00 NULL NULL 82.9 66.9 59% 86 29.93 1012.2
01 19:51 S 3 0.00 NULL NULL 88 66 48% 90 29.92 1011.8
01 18:51 S 5 0.00 NULL NULL 91.9 66.9 99 91.9 44% 95 29.93 1012.1
01 17:51 S 7 0.00 NULL NULL 96.1 64.9 36% 99 29.93 1012.1
01 16:51 S 10 0.00 NULL NULL 98.1 64 33% 101 29.94 1012.1
01 15:51 S 10 G 17 0.00 NULL NULL 99 62.1 30% 100 29.95 1012.5
01 14:51 SW 10 G 21 0.00 NULL NULL 98.1 62.1 31% 99 29.97 1013.0
01 13:51 S 10 G 21 0.00 NULL NULL 98.1 64.9 34% 101 29.98 1013.5
01 12:51 SW 8 0.00 NULL NULL 95 66 96.1 69.1 39% 98 30 1014.2
01 11:51 SW 9 0.00 NULL NULL 93 66 41% 96 30.01 1014.7
01 10:51 SW 7 0.00 NULL NULL 89.1 66 47% 92 30.02 1014.9
01 09:51 S 7 0.00 NULL NULL 84 66 55% 86 30.02 1015.1
01 08:51 S 5 0.00 NULL NULL 79 66 65% 81 30.03 1015.3
01 07:51 S 3 0.00 NULL NULL 73 64.9 76% 30.03 1015.4
01 06:51 S 3 0.00 NULL NULL 69.1 64 73.9 68 84% 30.01 1014.9
01 05:51 S 3 0.00 NULL NULL 69.1 64.9 87% 30 1014.2
01 04:51 S 5 0.00 NULL NULL 70 66 87% 29.99 1014.0
01 03:51 Calm 0.00 NULL NULL 70 69.1 97% 29.97 1013.4
01 01:51 Calm 0.00 NULL NULL 73 71.1 94% 29.98 1013.5
01 00:51 Calm 0.00 NULL NULL 73.9 71.1 91.9 73.9 91% 29.98 1013.7
31 23:51 Calm 0.00 NULL NULL 73.9 72 94% 29.97 1013.3
31 22:51 Calm 0.00 NULL NULL 77 73 88% 78 29.96 1013.1
31 21:51 Calm 0.00 NULL NULL 78.1 73.9 87% 81 29.96 1013.0
31 20:51 Calm 0.00 NULL NULL 80.1 75 85% 85 29.94 1012.5
31 19:51 Calm 0.00 NULL NULL 84 77 80% 94 29.93 1012.1
31 18:51 Calm 0.00 NULL NULL 91.9 73 97 91 54% 101 29.93 1011.7
31 17:51 Calm 0.00 NULL NULL 96.1 70 43% 103 29.93 1011.6
31 16:51 Calm 0.00 NULL NULL 96.1 69.1 41% 102 29.93 1011.8
31 15:51 SW 8 0.00 NULL NULL 95 69.1 43% 101 29.94 1011.9
31 14:51 S 8 0.00 NULL NULL 93 70 47% 99 29.94 1012.1
31 13:51 Vrbl 7 0.00 NULL NULL 93 70 47% 99 29.94 1012.1
31 12:51 S 8 G 17 0.00 NULL NULL 91.9 66.9 93.9 75 44% 95 29.94 1012.2
31 11:51 S 9 0.00 NULL NULL 91 66.9 45% 94 29.96 1012.7
31 10:51 Vrbl 7 0.00 NULL NULL 89.1 66 47% 92 29.96 1012.8
31 09:51 S 10 0.00 NULL NULL 84 66 55% 86 29.96 1012.8
31 08:51 S 9 G 20 0.00 NULL NULL 79 64 60% 81 29.96 1012.9
31 07:51 S 10 0.00 NULL NULL 75.9 64 67% 78 29.95 1012.7
31 06:51 S 8 0.00 NULL NULL 75 64 81 75 69% 77 29.94 1012.1
31 05:51 S 6 0.00 NULL NULL 75.9 64 67% 78 29.94 1012.0
31 04:51 S 6 0.00 NULL NULL 77 64 64% 79 29.93 1011.7
31 03:51 S 8 0.00 NULL NULL 78.1 64 62% 80 29.93 1011.6
31 02:51 S 10 0.00 NULL NULL 80.1 64 58% 82 29.91 1011.1
Date Time (cdt) Wind (mph) Vis. (mi.) Weather Sky Cond. Air Dwpt Max. Min. Relative Humidity Wind Chill (°F) Heat Index (°F) altimeter (in) sea level (mb) 1 hr 3 hr 6 hr
6 hour
Temperature (ºF) Pressure Precipitation (in)